createdAt,value
2019-05-01T03:00:59.190Z,15.88
2019-05-01T03:03:28.688Z,15.85
2019-05-01T03:05:58.031Z,16.82
2019-05-01T03:08:27.444Z,16.65
2019-05-01T03:10:56.936Z,18.62
2019-05-01T03:13:26.195Z,18.35
2019-05-01T03:15:56.507Z,16.57
2019-05-01T03:18:30.100Z,16.35
2019-05-01T03:21:01.400Z,16.12
2019-05-01T03:23:32.639Z,16.82
2019-05-01T03:26:01.992Z,16.02
2019-05-01T03:28:31.720Z,16.82
2019-05-01T03:31:01.429Z,15.95
2019-05-01T03:33:30.703Z,18.75
2019-05-01T03:36:00.242Z,17.75
2019-05-01T03:38:30.275Z,20.60
2019-05-01T03:40:59.548Z,16.80
2019-05-01T03:43:29.304Z,17.65
2019-05-01T03:45:58.623Z,16.48
2019-05-01T03:48:28.133Z,16.37
2019-05-01T03:50:57.636Z,18.77
2019-05-01T03:53:27.203Z,18.95
2019-05-01T03:55:57.435Z,17.20
2019-05-01T03:58:26.795Z,17.30
2019-05-01T04:01:14.179Z,16.60
2019-05-01T04:03:45.259Z,19.37
2019-05-01T04:06:14.600Z,16.82
2019-05-01T04:08:44.109Z,17.05
2019-05-01T04:11:13.370Z,19.15
2019-05-01T04:13:42.807Z,17.57
2019-05-01T04:16:12.810Z,16.62
2019-05-01T04:18:42.083Z,18.32
2019-05-01T04:21:11.719Z,18.17
2019-05-01T04:23:42.745Z,17.25
2019-05-01T04:26:12.350Z,16.67
2019-05-01T04:28:55.749Z,20.75
2019-05-01T04:31:32.599Z,19.60
2019-05-01T04:34:19.781Z,18.73
2019-05-01T04:36:56.951Z,19.02
2019-05-01T04:39:26.283Z,15.90
2019-05-01T04:41:55.558Z,17.07
2019-05-01T04:44:24.820Z,16.17
2019-05-01T04:46:54.263Z,16.67
2019-05-01T04:49:23.662Z,17.00
2019-05-01T04:51:53.108Z,16.02
2019-05-01T04:54:22.599Z,18.23
2019-05-01T04:56:52.030Z,17.42
2019-05-01T04:59:21.538Z,18.85
2019-05-01T05:01:56.833Z,18.07
2019-05-01T05:04:25.400Z,16.52
2019-05-01T05:06:55.404Z,16.10
2019-05-01T05:09:38.917Z,18.40
2019-05-01T05:12:10.270Z,17.77
2019-05-01T05:14:41.316Z,18.85
2019-05-01T05:17:12.282Z,17.35
2019-05-01T05:19:41.695Z,20.80
2019-05-01T05:22:11.254Z,20.92
2019-05-01T05:24:40.695Z,20.82
2019-05-01T05:27:12.324Z,20.68
2019-05-01T05:29:43.630Z,19.25
2019-05-01T05:32:15.434Z,21.42
2019-05-01T05:34:47.307Z,21.55
2019-05-01T05:37:20.646Z,20.25
2019-05-01T05:39:51.654Z,21.77
2019-05-01T05:42:21.464Z,20.95
2019-05-01T05:44:50.726Z,18.95
2019-05-01T05:47:20.139Z,20.40
2019-05-01T05:49:49.547Z,21.42
2019-05-01T05:52:28.430Z,20.48
2019-05-01T05:55:01.840Z,19.45
2019-05-01T05:57:44.044Z,21.12
2019-05-01T06:00:31.614Z,20.70
2019-05-01T06:03:05.023Z,20.30
2019-05-01T06:05:37.666Z,19.95
2019-05-01T06:08:16.542Z,22.15
2019-05-01T06:11:05.736Z,20.85
2019-05-01T06:13:57.161Z,20.88
2019-05-01T06:16:26.851Z,21.25
2019-05-01T06:19:03.934Z,20.52
2019-05-01T06:21:35.939Z,19.90
2019-05-01T06:24:08.335Z,20.82
2019-05-01T06:26:39.487Z,20.45
2019-05-01T06:29:08.920Z,20.65
2019-05-01T06:31:38.454Z,19.10
2019-05-01T06:34:07.798Z,20.77
2019-05-01T06:36:37.142Z,20.35
2019-05-01T06:39:11.989Z,21.77
2019-05-01T06:41:42.742Z,21.80
2019-05-01T06:44:20.475Z,23.12
2019-05-01T06:46:58.366Z,23.38
2019-05-01T06:49:29.285Z,21.50
2019-05-01T06:52:02.148Z,22.60
2019-05-01T06:54:32.859Z,22.65
2019-05-01T06:57:03.753Z,24.30
2019-05-01T06:59:35.423Z,22.90
2019-05-01T07:02:05.695Z,22.15
2019-05-01T07:04:37.968Z,24.15
2019-05-01T07:07:07.125Z,23.73
2019-05-01T07:09:38.579Z,25.12
2019-05-01T07:12:09.637Z,24.12
2019-05-01T07:14:39.205Z,23.75
2019-05-01T07:17:13.549Z,24.60
2019-05-01T07:19:56.908Z,23.18
2019-05-01T07:22:26.543Z,26.50
2019-05-01T07:24:58.955Z,26.15
2019-05-01T07:27:27.182Z,25.15
2019-05-01T07:30:00.823Z,26.10
2019-05-01T07:32:30.300Z,26.48
2019-05-01T07:35:02.073Z,23.20
2019-05-01T07:37:30.764Z,23.02
2019-05-01T07:40:00.207Z,25.48
2019-05-01T07:42:31.178Z,22.60
2019-05-01T07:45:20.855Z,24.70
2019-05-01T07:47:51.836Z,25.15
2019-05-01T07:50:23.872Z,25.20
2019-05-01T07:52:53.995Z,25.45
2019-05-01T07:55:27.708Z,23.02
2019-05-01T07:57:56.979Z,25.37
2019-05-01T08:00:36.889Z,24.67
2019-05-01T08:03:07.183Z,24.50
2019-05-01T08:05:35.617Z,24.92
2019-05-01T08:08:07.822Z,23.80
2019-05-01T08:10:35.934Z,23.62
2019-05-01T08:13:05.199Z,24.43
2019-05-01T08:15:34.482Z,21.82
2019-05-01T08:18:08.527Z,22.80
2019-05-01T08:20:39.434Z,24.82
2019-05-01T08:23:12.119Z,23.85
2019-05-01T08:25:39.675Z,24.80
2019-05-01T08:28:10.590Z,24.00
2019-05-01T08:30:57.476Z,25.05
2019-05-01T08:33:40.474Z,25.50
2019-05-01T08:36:11.859Z,26.15
2019-05-01T08:38:41.285Z,26.15
2019-05-01T08:41:10.550Z,24.10
2019-05-01T08:43:40.110Z,26.05
2019-05-01T08:46:16.559Z,26.37
2019-05-01T08:51:14.736Z,24.63
2019-05-01T08:53:44.010Z,25.70
2019-05-01T08:56:17.139Z,24.37
2019-05-01T08:58:44.821Z,26.52
2019-05-01T09:01:16.428Z,25.02
2019-05-01T09:03:49.799Z,25.23
2019-05-01T09:06:16.774Z,26.57
2019-05-01T09:08:46.263Z,25.88
2019-05-01T09:11:15.543Z,27.65
2019-05-01T09:13:45.051Z,26.73
2019-05-01T09:16:14.324Z,26.10
2019-05-01T09:18:43.842Z,27.52
2019-05-01T09:21:13.352Z,28.23
2019-05-01T09:23:46.091Z,26.42
2019-05-01T09:26:31.474Z,27.55
2019-05-01T09:29:11.097Z,28.35
2019-05-01T09:31:39.179Z,28.27
2019-05-01T09:34:09.581Z,28.07
2019-05-01T09:36:38.877Z,28.87
2019-05-01T09:39:09.874Z,31.05
2019-05-01T09:41:43.035Z,27.10
2019-05-01T09:44:12.019Z,28.23
2019-05-01T09:46:41.463Z,29.77
2019-05-01T09:49:14.345Z,29.87
2019-05-01T09:51:47.493Z,26.40
2019-05-01T09:54:18.996Z,28.30
2019-05-01T09:56:48.661Z,29.27
2019-05-01T09:59:19.111Z,27.40
2019-05-01T10:01:48.493Z,27.70
2019-05-01T10:04:17.839Z,26.15
2019-05-01T10:06:47.695Z,27.48
2019-05-01T10:09:18.308Z,28.47
2019-05-01T10:11:47.654Z,27.52
2019-05-01T10:14:16.923Z,25.35
2019-05-01T10:16:46.203Z,25.72
2019-05-01T10:19:15.477Z,26.50
2019-05-01T10:21:44.751Z,24.75
2019-05-01T10:24:14.033Z,24.82
2019-05-01T10:26:44.930Z,23.47
2019-05-01T10:29:16.818Z,24.27
2019-05-01T10:31:56.590Z,22.82
2019-05-01T10:34:44.649Z,21.80
2019-05-01T10:37:13.942Z,20.72
2019-05-01T10:39:43.218Z,20.82
2019-05-01T10:42:12.490Z,19.87
2019-05-01T10:44:41.999Z,17.85
2019-05-01T10:47:11.271Z,23.35
2019-05-01T10:49:40.554Z,21.57
2019-05-01T10:52:14.452Z,21.00
2019-05-01T10:54:40.806Z,21.00
2019-05-01T10:57:12.813Z,19.65
2019-05-01T10:59:41.051Z,18.87
2019-05-01T11:02:11.962Z,20.45
2019-05-01T11:04:41.235Z,17.75
2019-05-01T11:07:10.527Z,17.40
2019-05-01T11:09:40.020Z,17.12
2019-05-01T11:12:09.370Z,16.95
2019-05-01T11:14:38.634Z,17.27
2019-05-01T11:17:07.994Z,17.23
2019-05-01T11:19:37.262Z,17.17
2019-05-01T11:22:06.535Z,15.60
2019-05-01T11:24:36.119Z,14.58
2019-05-01T11:27:05.408Z,13.35
2019-05-01T11:29:34.682Z,16.05
2019-05-01T11:32:22.017Z,14.95
2019-05-01T11:34:58.755Z,15.95
2019-05-01T11:37:38.287Z,16.50
2019-05-01T11:40:27.731Z,16.70
2019-05-01T11:42:57.232Z,14.65
2019-05-01T11:45:26.626Z,14.10
2019-05-01T11:47:55.902Z,14.90
2019-05-01T11:50:25.175Z,15.05
2019-05-01T11:52:54.453Z,15.10
2019-05-01T11:55:23.772Z,18.70
2019-05-01T11:57:53.259Z,14.65
2019-05-01T12:00:24.249Z,14.83
2019-05-01T12:02:53.755Z,15.83
2019-05-01T12:05:23.015Z,17.25
2019-05-01T12:07:52.361Z,18.98
2019-05-01T12:10:21.643Z,16.27
2019-05-01T12:12:50.990Z,14.18
2019-05-01T12:15:20.397Z,16.55
2019-05-01T12:17:50.645Z,16.07
2019-05-01T12:20:20.728Z,15.18
2019-05-01T12:22:51.777Z,15.00
2019-05-01T12:25:21.312Z,16.35
2019-05-01T12:27:51.566Z,15.58
2019-05-01T12:30:22.534Z,17.30
2019-05-01T12:32:52.155Z,15.43
2019-05-01T12:35:21.435Z,15.30
2019-05-01T12:37:55.195Z,14.90
2019-05-01T12:40:23.679Z,15.08
2019-05-01T12:42:52.980Z,14.60
2019-05-01T12:45:22.661Z,14.33
2019-05-01T12:47:53.594Z,13.28
2019-05-01T12:50:22.941Z,13.62
2019-05-01T12:52:59.808Z,12.18
2019-05-01T12:55:46.731Z,13.10
2019-05-01T12:58:16.011Z,12.65
2019-05-01T13:00:53.000Z,14.05
2019-05-01T13:03:22.274Z,12.70
2019-05-01T13:05:51.555Z,13.30
2019-05-01T13:08:20.891Z,12.10
2019-05-01T13:10:50.403Z,14.33
2019-05-01T13:13:19.683Z,14.58
2019-05-01T13:15:48.955Z,13.68
2019-05-01T13:18:18.238Z,14.18
2019-05-01T13:20:47.507Z,14.83
2019-05-01T13:23:16.778Z,14.60
2019-05-01T13:25:46.499Z,12.33
2019-05-01T13:28:32.335Z,13.40
2019-05-01T13:31:09.160Z,12.23
2019-05-01T13:33:38.468Z,12.23
2019-05-01T13:36:09.221Z,13.03
2019-05-01T13:38:38.535Z,13.20
2019-05-01T13:41:09.172Z,13.08
2019-05-01T13:43:38.449Z,13.70
2019-05-01T13:46:07.714Z,12.55
2019-05-01T13:48:36.993Z,11.85
2019-05-01T13:51:06.263Z,12.95
2019-05-01T13:53:35.535Z,12.45
2019-05-01T13:56:05.051Z,13.25
2019-05-01T13:58:34.689Z,13.08
2019-05-01T14:01:04.300Z,12.55
2019-05-01T14:03:33.649Z,11.25
2019-05-01T14:06:03.066Z,10.35
2019-05-01T14:08:32.409Z,9.63
2019-05-01T14:11:01.695Z,11.22
2019-05-01T14:13:31.031Z,9.85
2019-05-01T14:16:00.310Z,11.55
2019-05-01T14:18:29.590Z,11.25
2019-05-01T14:21:12.615Z,11.45
2019-05-01T14:23:52.192Z,11.78
2019-05-01T14:26:21.467Z,10.18
2019-05-01T14:28:50.743Z,9.95
2019-05-01T14:31:20.010Z,11.70
2019-05-01T14:33:49.284Z,10.75
2019-05-01T14:36:18.558Z,9.63
2019-05-01T14:38:47.837Z,10.20
2019-05-01T14:41:17.131Z,9.68
2019-05-01T14:43:46.410Z,10.08
2019-05-01T14:46:15.683Z,10.25
2019-05-01T14:48:44.949Z,9.55
2019-05-01T14:51:16.128Z,9.70
2019-05-01T14:53:45.184Z,10.20
2019-05-01T14:56:14.692Z,9.90
2019-05-01T14:58:43.959Z,10.45
2019-05-01T15:01:13.230Z,10.58
2019-05-01T15:03:43.467Z,9.85
2019-05-01T15:06:12.806Z,9.63
2019-05-01T15:08:42.067Z,10.63
2019-05-01T15:11:11.663Z,10.35
2019-05-01T15:13:48.503Z,11.03
2019-05-01T15:16:31.362Z,11.60
2019-05-01T15:19:05.923Z,11.60
2019-05-01T15:21:35.751Z,9.30
2019-05-01T15:24:05.324Z,8.70
2019-05-01T15:26:34.614Z,9.88
2019-05-01T15:29:04.840Z,9.15
2019-05-01T15:31:34.174Z,8.88
2019-05-01T15:34:03.696Z,9.83
2019-05-01T15:36:33.023Z,10.13
2019-05-01T15:39:05.679Z,10.60
2019-05-01T15:41:39.198Z,9.88
2019-05-01T15:44:12.807Z,9.95
2019-05-01T15:46:42.302Z,9.03
2019-05-01T15:49:11.589Z,9.05
2019-05-01T15:51:40.919Z,10.72
2019-05-01T15:54:10.195Z,10.78
2019-05-01T15:56:39.471Z,10.53
2019-05-01T15:59:08.964Z,11.28
2019-05-01T16:01:38.244Z,10.03
2019-05-01T16:04:07.508Z,10.05
2019-05-01T16:06:36.783Z,10.13
2019-05-01T16:09:07.193Z,8.90
2019-05-01T16:11:54.332Z,15.40
2019-05-01T16:14:23.595Z,9.33
2019-05-01T16:16:52.871Z,9.70
2019-05-01T16:19:22.150Z,10.43
2019-05-01T16:21:51.418Z,8.43
2019-05-01T16:24:20.913Z,8.63
2019-05-01T16:26:50.419Z,9.48
2019-05-01T16:29:19.778Z,9.38
2019-05-01T16:31:49.045Z,8.60
2019-05-01T16:34:18.310Z,8.88
2019-05-01T16:36:47.588Z,8.60
2019-05-01T16:39:27.347Z,8.50
2019-05-01T16:41:56.622Z,8.38
2019-05-01T16:44:25.891Z,7.90
2019-05-01T16:46:55.160Z,8.40
2019-05-01T16:49:24.431Z,7.92
2019-05-01T16:51:53.703Z,8.00
2019-05-01T16:54:22.966Z,8.35
2019-05-01T16:56:52.240Z,8.25
2019-05-01T16:59:21.511Z,8.20
2019-05-01T17:01:52.644Z,8.63
2019-05-01T17:04:38.309Z,8.28
2019-05-01T17:07:25.348Z,8.48
2019-05-01T17:09:58.971Z,7.40
2019-05-01T17:12:32.562Z,7.90
2019-05-01T17:15:02.234Z,8.35
2019-05-01T17:17:32.111Z,8.05
2019-05-01T17:20:01.383Z,7.60
2019-05-01T17:22:30.653Z,8.58
2019-05-01T17:25:00.163Z,7.92
2019-05-01T17:27:29.419Z,7.75
2019-05-01T17:29:58.694Z,7.62
2019-05-01T17:32:27.973Z,7.33
2019-05-01T17:34:57.239Z,7.90
2019-05-01T17:37:26.507Z,7.67
2019-05-01T17:39:55.780Z,7.28
2019-05-01T17:42:25.047Z,8.28
2019-05-01T17:44:55.902Z,7.70
2019-05-01T17:47:26.934Z,8.15
2019-05-01T17:49:56.303Z,7.08
2019-05-01T17:52:25.791Z,7.87
2019-05-01T17:54:55.066Z,8.18
2019-05-01T17:57:24.336Z,8.00
2019-05-01T17:59:55.235Z,8.43
2019-05-01T18:02:35.283Z,7.83
2019-05-01T18:05:15.145Z,7.80
2019-05-01T18:07:44.656Z,7.25
2019-05-01T18:10:13.923Z,7.20
2019-05-01T18:12:43.187Z,7.67
2019-05-01T18:15:12.527Z,7.62
2019-05-01T18:17:41.808Z,7.83
2019-05-01T18:20:11.215Z,7.08
2019-05-01T18:22:42.115Z,6.50
2019-05-01T18:25:13.095Z,6.67
2019-05-01T18:27:58.977Z,6.95
2019-05-01T18:30:35.670Z,7.22
2019-05-01T18:33:05.275Z,6.67
2019-05-01T18:35:35.258Z,9.85
2019-05-01T18:38:13.029Z,8.35
2019-05-01T18:40:46.595Z,7.25
2019-05-01T18:43:15.875Z,7.20
2019-05-01T18:45:53.128Z,7.22
2019-05-01T18:48:23.795Z,7.30
2019-05-01T18:50:54.990Z,6.83
2019-05-01T18:53:25.670Z,7.42
2019-05-01T18:55:55.009Z,6.67
2019-05-01T18:58:24.588Z,7.37
2019-05-01T19:00:53.900Z,7.75
2019-05-01T19:03:23.187Z,7.97
2019-05-01T19:05:52.455Z,7.35
2019-05-01T19:08:21.981Z,7.20
2019-05-01T19:10:51.478Z,7.45
2019-05-01T19:13:21.052Z,7.08
2019-05-01T19:15:50.324Z,6.62
2019-05-01T19:18:19.614Z,7.22
2019-05-01T19:20:59.507Z,8.03
2019-05-01T19:23:22.197Z,7.42
2019-05-01T19:25:51.340Z,7.40
2019-05-01T19:28:21.163Z,8.10
2019-05-01T19:30:50.541Z,8.30
2019-05-01T19:33:20.043Z,8.70
2019-05-01T19:35:50.457Z,8.40
2019-05-01T19:38:21.357Z,7.90
2019-05-01T19:40:50.637Z,7.33
2019-05-01T19:43:20.147Z,7.58
2019-05-01T19:45:49.640Z,7.62
2019-05-01T19:48:19.056Z,8.10
2019-05-01T19:50:49.610Z,7.58
2019-05-01T19:53:18.902Z,7.45
2019-05-01T19:55:48.199Z,7.00
2019-05-01T19:58:17.585Z,8.40
2019-05-01T20:00:52.563Z,8.45
2019-05-01T20:03:22.205Z,8.08
2019-05-01T20:05:51.539Z,7.95
2019-05-01T20:08:22.532Z,7.67
2019-05-01T20:10:52.261Z,8.05
2019-05-01T20:13:21.520Z,8.15
2019-05-01T20:15:50.786Z,8.85
2019-05-01T20:18:20.143Z,8.43
2019-05-01T20:20:49.413Z,8.45
2019-05-01T20:23:18.748Z,8.78
2019-05-01T20:25:51.056Z,8.63
2019-05-01T20:28:20.114Z,9.05
2019-05-01T20:30:50.192Z,9.40
2019-05-01T20:33:19.530Z,9.45
2019-05-01T20:35:49.023Z,9.05
2019-05-01T20:38:18.299Z,9.13
2019-05-01T20:40:47.659Z,9.23
2019-05-01T20:43:16.923Z,8.93
2019-05-01T20:45:49.384Z,8.98
2019-05-01T20:48:18.441Z,9.50
2019-05-01T20:50:48.250Z,9.38
2019-05-01T20:53:17.531Z,9.53
2019-05-01T20:55:48.435Z,8.05
2019-05-01T20:58:21.710Z,9.20
2019-05-01T21:00:53.285Z,9.55
2019-05-01T21:03:23.671Z,8.35
2019-05-01T21:05:54.578Z,8.68
2019-05-01T21:08:29.100Z,9.45
2019-05-01T21:11:05.951Z,9.08
2019-05-01T21:13:34.435Z,9.23
2019-05-01T21:16:04.150Z,9.10
2019-05-01T21:18:33.613Z,10.30
2019-05-01T21:21:03.541Z,10.23
2019-05-01T21:23:33.429Z,9.60
2019-05-01T21:26:03.883Z,10.38
2019-05-01T21:28:34.073Z,10.10
2019-05-01T21:31:04.055Z,10.05
2019-05-01T21:33:34.317Z,10.58
2019-05-01T21:36:04.769Z,9.85
2019-05-01T21:38:34.603Z,10.00
2019-05-01T21:41:04.914Z,10.80
2019-05-01T21:43:37.032Z,9.95
2019-05-01T21:46:05.218Z,10.28
2019-05-01T21:48:34.498Z,10.65
2019-05-01T21:51:07.399Z,10.90
2019-05-01T21:53:37.327Z,10.65
2019-05-01T21:56:06.140Z,10.72
2019-05-01T21:58:36.659Z,10.63
2019-05-01T22:01:06.638Z,10.05
2019-05-01T22:03:35.987Z,11.10
2019-05-01T22:06:05.323Z,11.35
2019-05-01T22:08:39.128Z,10.65
2019-05-01T22:11:09.605Z,11.03
2019-05-01T22:13:38.938Z,10.88
2019-05-01T22:16:10.086Z,10.85
2019-05-01T22:18:41.219Z,10.85
2019-05-01T22:21:12.138Z,11.73
2019-05-01T22:23:59.567Z,12.30
2019-05-01T22:26:33.139Z,11.10
2019-05-01T22:29:04.047Z,11.90
2019-05-01T22:31:44.131Z,11.20
2019-05-01T22:34:20.582Z,11.10
2019-05-01T22:36:50.103Z,10.63
2019-05-01T22:39:21.016Z,11.33
2019-05-01T22:41:50.296Z,11.12
2019-05-01T22:44:20.542Z,11.20
2019-05-01T22:46:50.040Z,11.38
2019-05-01T22:49:19.324Z,11.60
2019-05-01T22:51:48.598Z,11.88
2019-05-01T22:54:18.095Z,11.10
2019-05-01T22:56:47.594Z,11.35
2019-05-01T22:59:16.862Z,11.53
2019-05-01T23:01:49.281Z,11.68
2019-05-01T23:04:19.018Z,11.88
2019-05-01T23:06:48.323Z,12.88
2019-05-01T23:09:19.145Z,11.78
2019-05-01T23:11:48.483Z,12.13
2019-05-01T23:14:18.010Z,11.75
2019-05-01T23:16:48.914Z,12.30
2019-05-01T23:19:18.202Z,14.18
2019-05-01T23:21:50.779Z,11.90
2019-05-01T23:24:18.514Z,11.55
2019-05-01T23:26:51.663Z,12.73
2019-05-01T23:29:18.990Z,13.10
2019-05-01T23:31:48.255Z,12.13
2019-05-01T23:34:21.073Z,11.90
2019-05-01T23:36:48.512Z,13.62
2019-05-01T23:39:17.783Z,13.83
2019-05-01T23:41:47.276Z,14.93
2019-05-01T23:44:16.606Z,14.05
2019-05-01T23:46:45.883Z,14.58
2019-05-01T23:49:15.158Z,14.38
2019-05-01T23:51:44.658Z,15.05
2019-05-01T23:54:13.935Z,13.93
2019-05-01T23:56:43.212Z,13.48
2019-05-01T23:59:12.483Z,13.78
